This is the latest recevied weather packets stored in our database for station/object W8MRL. If no packets are shown the sender has not sent any weather packets the latest 10 day(s).
| Time | Temp. | Humidity | Pressure | Rain* | Wind** | Luminosity | Snow |
|---|---|---|---|---|---|---|---|
| 1777820461 | 13.33° C | 58% | 1023.7 hPa | 0 mm | - | - | - |
| 1777819555 | 12.22° C | 61% | 1023.7 hPa | 0 mm | - | - | - |
| 1777818649 | 11.67° C | 61% | 1023.7 hPa | 0 mm | - | - | - |
| 1777817747 | 11.11° C | 62% | 1023.6 hPa | 0 mm | - | - | - |
| 1777816843 | 10° C | 62% | 1023.8 hPa | 0 mm | - | - | - |
| 1777815959 | 9.44° C | 66% | 1023.8 hPa | 0 mm | - | - | - |
| 1777815035 | 8.33° C | 69% | 1023.8 hPa | 0 mm | - | - | - |
| 1777814133 | 7.22° C | 73% | 1023.9 hPa | 0 mm | - | - | - |
| 1777813228 | 6.11° C | 77% | 1023.9 hPa | 0 mm | - | - | - |
| 1777812323 | 4.44° C | 83% | 1024 hPa | 0 mm | - | - | - |
| 1777811418 | 2.78° C | 91% | 1023.9 hPa | 0 mm | - | - | - |
| 1777810515 | 1.67° C | 93% | 1023.9 hPa | 0 mm | - | - | - |
| 1777809614 | 1.11° C | 95% | 1023.8 hPa | 0 mm | - | - | - |
| 1777808717 | 0.56° C | 95% | 1023.7 hPa | 0 mm | - | - | - |
| 1777807811 | 0° C | 94% | 1023.5 hPa | 0 mm | - | - | - |
| 1777806914 | 0° C | 94% | 1023.4 hPa | 0 mm | - | - | - |
| 1777806008 | 0° C | 94% | 1023.3 hPa | 0 mm | - | - | - |
| 1777805107 | 0° C | 94% | 1023.1 hPa | 0 mm | - | - | - |
| 1777804206 | 0° C | 94% | 1022.9 hPa | 0 mm | - | - | - |
| 1777803309 | 0° C | 94% | 1022.8 hPa | 0 mm | - | - | - |
| 1777802409 | 0° C | 93% | 1022.8 hPa | 0 mm | - | - | - |
| 1777801506 | 0° C | 93% | 1022.9 hPa | 0 mm | - | - | - |
| 1777800603 | 0° C | 93% | 1022.8 hPa | 0 mm | - | - | - |
| 1777799702 | 0° C | 92% | 1022.8 hPa | 0 mm | - | - | - |
| 1777798801 | 0° C | 92% | 1022.7 hPa | 0 mm | - | - | - |
* Rain latest hour (hover to see other rain measurements)
** Current wind speed in m/s (hover to see current wind gust speed)